West Bay Shore, New York
Current Conditions -  °F | °C
As of 7:53 PM on Saturday 22 Nov 2014 (Local Time) from KFRG Reporting Station
Overcast Overcast  
Wind Chill: 39°   Ceiling: 11000
Heat Index: 45°   Visibility: 10mi
Dew Point: 21°   Wind: 13mph
Humidity: 39%   Direction: 240°WSW
Pressure: 30.24"   Gusts: NA
Location:  40.7379°N, 73.2632°W
Report Text: KFRG 230053Z 24011KT 10SM OVC110 07/M06 A3024 RMK AO2 SLP242 T00721061
Loading
Personal Weather Stations






























Interactive Weather Map New forecast layout! Learn more

10-Day Weather Forecast

Advertisements
Track Severe Weather on mobile